createdAt,value
2018-11-27T15:30:23.874Z,17.50
2018-11-27T15:35:27.133Z,19.90
2018-11-27T15:40:32.148Z,20.40
2018-11-27T15:45:35.794Z,19.87
2018-11-27T15:50:39.524Z,19.07
2018-11-27T15:55:44.432Z,18.50
2018-11-27T16:00:48.057Z,17.53
2018-11-27T16:05:53.500Z,17.53
2018-11-27T16:11:25.367Z,18.70
2018-11-27T16:27:53.308Z,16.73
2018-11-27T16:33:00.176Z,17.37
2018-11-27T16:38:05.190Z,15.73
2018-11-27T16:43:09.883Z,14.67
2018-11-27T16:48:13.659Z,15.90
2018-11-27T16:53:19.475Z,14.53
2018-11-27T16:58:25.312Z,17.20
2018-11-27T17:03:36.401Z,15.47
2018-11-27T17:08:40.209Z,15.27
2018-11-27T17:13:46.364Z,15.23
2018-11-27T17:18:49.929Z,14.93
2018-11-27T17:23:53.438Z,16.40
2018-11-27T17:28:57.096Z,16.73
2018-11-27T18:02:16.302Z,18.57
2018-11-27T18:07:21.346Z,15.73
2018-11-27T18:12:25.279Z,16.63
2018-11-27T18:17:29.811Z,15.90
2018-11-27T18:28:10.932Z,20.97
2018-11-27T18:33:14.384Z,23.73
2018-11-27T18:38:17.710Z,20.70
2018-11-27T18:43:21.024Z,21.03
2018-11-27T18:48:24.359Z,18.63
2018-11-27T18:53:27.866Z,18.97
2018-11-27T18:58:32.398Z,19.60
2018-11-27T19:03:36.571Z,17.33
2018-11-27T19:08:41.359Z,21.33
2018-11-27T19:13:45.165Z,18.97
2018-11-27T19:46:56.166Z,18.33
2018-11-27T19:51:59.815Z,19.40
2018-11-27T20:08:16.451Z,19.30
2018-11-27T20:13:22.123Z,20.43
2018-11-27T20:18:34.454Z,19.53
2018-11-27T20:35:21.852Z,19.82
2018-11-27T20:40:44.670Z,20.33
2018-11-27T20:51:18.846Z,24.13
2018-11-27T20:56:29.004Z,22.00
2018-11-27T21:01:33.346Z,20.77
2018-11-27T21:06:37.168Z,20.27
2018-11-27T21:11:41.256Z,19.00
2018-11-27T21:16:45.052Z,22.00
2018-11-27T21:21:49.296Z,22.30
2018-11-27T21:26:53.843Z,22.07
2018-11-27T21:31:57.751Z,20.83
2018-11-27T21:37:01.504Z,20.48
2018-11-27T21:42:06.194Z,21.37
2018-11-27T21:47:09.941Z,19.67
2018-11-27T21:52:13.652Z,18.80
2018-11-27T21:57:17.360Z,18.60
2018-11-27T22:02:21.119Z,19.27
2018-11-27T22:07:26.356Z,17.50
2018-11-27T22:12:31.138Z,18.17
2018-11-27T22:17:35.098Z,16.77
2018-11-27T22:22:39.023Z,15.80
2018-11-27T22:27:42.987Z,15.13
2018-11-27T22:32:48.989Z,16.73
2018-11-27T22:37:52.723Z,17.47
2018-11-27T22:42:56.742Z,15.20
2018-11-27T22:48:00.504Z,15.53
2018-11-27T22:53:04.191Z,14.87
2018-11-27T22:58:08.472Z,13.73
2018-11-27T23:03:12.317Z,14.67
2018-11-27T23:08:16.347Z,14.43
2018-11-27T23:13:20.076Z,13.60
2018-11-27T23:18:23.894Z,13.87
2018-11-27T23:23:27.976Z,13.60
2018-11-27T23:28:31.750Z,14.70
2018-11-27T23:33:35.702Z,13.57
2018-11-27T23:38:39.501Z,13.98
2018-11-27T23:43:43.278Z,13.30
2018-11-27T23:48:48.029Z,14.77
2018-11-27T23:53:51.784Z,13.17
2018-11-27T23:58:55.852Z,14.58
